sensor_id;sensor_type;location;lat;lon;timestamp;P1;durP1;ratioP1;P2;durP2;ratioP2
1747;SDS011;871;47.034;15.394;2023-04-23T04:02:30;35.30;;;9.75;;
1747;SDS011;871;47.034;15.394;2023-04-23T04:04:56;34.17;;;10.07;;
1747;SDS011;871;47.034;15.394;2023-04-23T04:07:23;35.00;;;9.60;;
1747;SDS011;871;47.034;15.394;2023-04-23T04:09:49;33.90;;;9.40;;
1747;SDS011;871;47.034;15.394;2023-04-23T04:12:15;36.83;;;10.50;;
1747;SDS011;871;47.034;15.394;2023-04-23T04:14:41;38.00;;;10.63;;
1747;SDS011;871;47.034;15.394;2023-04-23T04:17:07;36.30;;;10.30;;
1747;SDS011;871;47.034;15.394;2023-04-23T04:19:33;40.20;;;11.20;;
1747;SDS011;871;47.034;15.394;2023-04-23T04:21:59;41.43;;;11.03;;
1747;SDS011;871;47.034;15.394;2023-04-23T04:24:27;46.40;;;11.80;;
1747;SDS011;871;47.034;15.394;2023-04-23T04:26:56;44.47;;;12.43;;
1747;SDS011;871;47.034;15.394;2023-04-23T04:29:24;44.40;;;12.07;;
1747;SDS011;871;47.034;15.394;2023-04-23T04:31:50;46.47;;;12.80;;
1747;SDS011;871;47.034;15.394;2023-04-23T04:34:16;47.70;;;13.77;;
1747;SDS011;871;47.034;15.394;2023-04-23T04:36:42;48.20;;;13.30;;
1747;SDS011;871;47.034;15.394;2023-04-23T04:39:09;44.67;;;12.10;;
1747;SDS011;871;47.034;15.394;2023-04-23T04:41:37;46.20;;;11.17;;
1747;SDS011;871;47.034;15.394;2023-04-23T04:44:04;45.03;;;12.63;;
1747;SDS011;871;47.034;15.394;2023-04-23T04:46:32;45.47;;;12.50;;
1747;SDS011;871;47.034;15.394;2023-04-23T04:48:59;50.10;;;15.40;;
1747;SDS011;871;47.034;15.394;2023-04-23T04:51:25;50.60;;;14.80;;
1747;SDS011;871;47.034;15.394;2023-04-23T04:53:52;50.17;;;15.50;;
1747;SDS011;871;47.034;15.394;2023-04-23T04:56:18;51.10;;;15.43;;
1747;SDS011;871;47.034;15.394;2023-04-23T04:58:44;46.37;;;12.23;;
1747;SDS011;871;47.034;15.394;2023-04-23T05:01:10;48.27;;;13.00;;
1747;SDS011;871;47.034;15.394;2023-04-23T05:03:37;48.67;;;12.97;;
1747;SDS011;871;47.034;15.394;2023-04-23T05:06:03;50.27;;;13.73;;
1747;SDS011;871;47.034;15.394;2023-04-23T05:08:30;48.43;;;13.40;;
1747;SDS011;871;47.034;15.394;2023-04-23T05:10:57;49.60;;;12.37;;
1747;SDS011;871;47.034;15.394;2023-04-23T05:13:24;50.00;;;12.57;;
1747;SDS011;871;47.034;15.394;2023-04-23T05:15:50;51.60;;;12.83;;
1747;SDS011;871;47.034;15.394;2023-04-23T05:18:16;47.50;;;11.43;;
1747;SDS011;871;47.034;15.394;2023-04-23T05:20:44;51.30;;;13.10;;
1747;SDS011;871;47.034;15.394;2023-04-23T05:23:11;47.03;;;11.07;;
1747;SDS011;871;47.034;15.394;2023-04-23T05:25:37;48.13;;;12.37;;
1747;SDS011;871;47.034;15.394;2023-04-23T05:28:03;53.43;;;10.83;;
1747;SDS011;871;47.034;15.394;2023-04-23T05:30:29;48.33;;;12.00;;
1747;SDS011;871;47.034;15.394;2023-04-23T05:32:55;48.33;;;11.73;;
1747;SDS011;871;47.034;15.394;2023-04-23T05:35:21;48.20;;;11.53;;
1747;SDS011;871;47.034;15.394;2023-04-23T05:37:47;51.17;;;13.23;;
1747;SDS011;871;47.034;15.394;2023-04-23T05:40:13;50.13;;;13.20;;
1747;SDS011;871;47.034;15.394;2023-04-23T05:42:39;45.77;;;10.60;;
1747;SDS011;871;47.034;15.394;2023-04-23T05:45:05;46.00;;;10.33;;
1747;SDS011;871;47.034;15.394;2023-04-23T05:47:31;53.43;;;12.40;;
1747;SDS011;871;47.034;15.394;2023-04-23T05:49:57;46.50;;;10.80;;
1747;SDS011;871;47.034;15.394;2023-04-23T05:52:24;50.03;;;10.80;;
1747;SDS011;871;47.034;15.394;2023-04-23T05:54:50;47.80;;;11.10;;
1747;SDS011;871;47.034;15.394;2023-04-23T05:57:16;48.63;;;10.37;;
1747;SDS011;871;47.034;15.394;2023-04-23T05:59:42;46.70;;;10.00;;
1747;SDS011;871;47.034;15.394;2023-04-23T06:02:10;45.90;;;9.40;;
1747;SDS011;871;47.034;15.394;2023-04-23T06:04:36;46.40;;;10.10;;
1747;SDS011;871;47.034;15.394;2023-04-23T06:07:02;46.63;;;9.80;;
1747;SDS011;871;47.034;15.394;2023-04-23T06:09:28;47.33;;;10.10;;
1747;SDS011;871;47.034;15.394;2023-04-23T06:11:54;45.40;;;9.03;;
1747;SDS011;871;47.034;15.394;2023-04-23T06:14:20;48.87;;;11.00;;
1747;SDS011;871;47.034;15.394;2023-04-23T06:16:46;50.10;;;10.23;;
1747;SDS011;871;47.034;15.394;2023-04-23T06:19:12;50.53;;;11.30;;
1747;SDS011;871;47.034;15.394;2023-04-23T06:21:38;51.43;;;11.07;;
1747;SDS011;871;47.034;15.394;2023-04-23T06:24:05;52.80;;;12.57;;
1747;SDS011;871;47.034;15.394;2023-04-23T06:26:32;50.70;;;11.80;;
1747;SDS011;871;47.034;15.394;2023-04-23T06:28:59;49.83;;;12.27;;
1747;SDS011;871;47.034;15.394;2023-04-23T06:31:25;49.80;;;10.93;;
1747;SDS011;871;47.034;15.394;2023-04-23T06:33:51;50.60;;;11.70;;
1747;SDS011;871;47.034;15.394;2023-04-23T06:36:17;49.13;;;10.70;;
1747;SDS011;871;47.034;15.394;2023-04-23T06:38:43;45.47;;;9.50;;
1747;SDS011;871;47.034;15.394;2023-04-23T06:41:09;52.43;;;10.27;;
1747;SDS011;871;47.034;15.394;2023-04-23T06:43:36;51.50;;;10.03;;
1747;SDS011;871;47.034;15.394;2023-04-23T06:46:03;47.07;;;8.87;;
1747;SDS011;871;47.034;15.394;2023-04-23T06:48:29;47.53;;;10.63;;
1747;SDS011;871;47.034;15.394;2023-04-23T06:50:56;51.53;;;11.10;;
1747;SDS011;871;47.034;15.394;2023-04-23T06:53:23;47.17;;;9.53;;
1747;SDS011;871;47.034;15.394;2023-04-23T06:55:49;45.30;;;9.23;;
1747;SDS011;871;47.034;15.394;2023-04-23T06:58:15;48.47;;;10.07;;
1747;SDS011;871;47.034;15.394;2023-04-23T07:00:42;48.50;;;10.93;;
1747;SDS011;871;47.034;15.394;2023-04-23T07:03:08;48.37;;;9.90;;
1747;SDS011;871;47.034;15.394;2023-04-23T07:05:34;45.57;;;9.07;;
1747;SDS011;871;47.034;15.394;2023-04-23T07:08:00;47.23;;;9.87;;
1747;SDS011;871;47.034;15.394;2023-04-23T07:10:27;47.23;;;9.30;;
1747;SDS011;871;47.034;15.394;2023-04-23T07:12:53;47.40;;;9.10;;
1747;SDS011;871;47.034;15.394;2023-04-23T07:15:19;44.87;;;9.77;;
1747;SDS011;871;47.034;15.394;2023-04-23T07:17:46;53.70;;;9.53;;
1747;SDS011;871;47.034;15.394;2023-04-23T07:20:12;46.50;;;9.40;;
1747;SDS011;871;47.034;15.394;2023-04-23T07:22:38;50.43;;;10.10;;
1747;SDS011;871;47.034;15.394;2023-04-23T07:25:04;46.07;;;9.17;;
1747;SDS011;871;47.034;15.394;2023-04-23T07:27:32;45.00;;;9.10;;
1747;SDS011;871;47.034;15.394;2023-04-23T07:29:58;48.87;;;9.43;;
1747;SDS011;871;47.034;15.394;2023-04-23T07:32:25;48.63;;;9.00;;
1747;SDS011;871;47.034;15.394;2023-04-23T07:34:52;50.10;;;8.50;;
1747;SDS011;871;47.034;15.394;2023-04-23T07:37:20;45.83;;;8.90;;
1747;SDS011;871;47.034;15.394;2023-04-23T07:39:46;45.93;;;9.23;;
1747;SDS011;871;47.034;15.394;2023-04-23T07:42:12;48.37;;;9.70;;
1747;SDS011;871;47.034;15.394;2023-04-23T07:44:38;48.50;;;9.83;;
1747;SDS011;871;47.034;15.394;2023-04-23T07:47:05;50.67;;;9.57;;
1747;SDS011;871;47.034;15.394;2023-04-23T07:49:31;50.83;;;9.60;;
1747;SDS011;871;47.034;15.394;2023-04-23T07:51:57;47.17;;;9.80;;
1747;SDS011;871;47.034;15.394;2023-04-23T07:54:23;48.60;;;10.13;;
1747;SDS011;871;47.034;15.394;2023-04-23T07:56:49;51.37;;;10.13;;
1747;SDS011;871;47.034;15.394;2023-04-23T07:59:15;48.73;;;10.23;;
1747;SDS011;871;47.034;15.394;2023-04-23T08:01:41;50.23;;;10.40;;
1747;SDS011;871;47.034;15.394;2023-04-23T08:04:07;51.33;;;9.40;;
1747;SDS011;871;47.034;15.394;2023-04-23T08:06:33;46.47;;;9.50;;
1747;SDS011;871;47.034;15.394;2023-04-23T08:08:59;49.67;;;9.80;;
1747;SDS011;871;47.034;15.394;2023-04-23T08:11:30;46.40;;;9.23;;
1747;SDS011;871;47.034;15.394;2023-04-23T08:13:56;47.43;;;9.00;;
1747;SDS011;871;47.034;15.394;2023-04-23T08:16:23;47.03;;;8.90;;
1747;SDS011;871;47.034;15.394;2023-04-23T08:18:49;47.60;;;10.33;;
1747;SDS011;871;47.034;15.394;2023-04-23T08:21:15;52.50;;;9.73;;
1747;SDS011;871;47.034;15.394;2023-04-23T08:23:41;47.53;;;8.90;;
1747;SDS011;871;47.034;15.394;2023-04-23T08:26:07;49.20;;;9.77;;
1747;SDS011;871;47.034;15.394;2023-04-23T08:28:34;46.07;;;9.10;;
1747;SDS011;871;47.034;15.394;2023-04-23T08:31:00;52.00;;;9.20;;
1747;SDS011;871;47.034;15.394;2023-04-23T08:33:26;47.40;;;9.40;;
1747;SDS011;871;47.034;15.394;2023-04-23T08:35:52;48.60;;;10.00;;
1747;SDS011;871;47.034;15.394;2023-04-23T08:38:18;47.80;;;9.67;;
1747;SDS011;871;47.034;15.394;2023-04-23T08:40:44;49.20;;;10.73;;
1747;SDS011;871;47.034;15.394;2023-04-23T08:43:30;48.60;;;10.00;;
1747;SDS011;871;47.034;15.394;2023-04-23T08:45:56;48.60;;;10.13;;
1747;SDS011;871;47.034;15.394;2023-04-23T08:48:26;50.13;;;11.27;;
1747;SDS011;871;47.034;15.394;2023-04-23T08:50:52;50.93;;;10.37;;
1747;SDS011;871;47.034;15.394;2023-04-23T08:53:20;53.17;;;10.57;;
1747;SDS011;871;47.034;15.394;2023-04-23T08:55:47;48.17;;;10.17;;
1747;SDS011;871;47.034;15.394;2023-04-23T08:58:14;50.03;;;9.97;;
1747;SDS011;871;47.034;15.394;2023-04-23T09:00:41;44.77;;;8.87;;
1747;SDS011;871;47.034;15.394;2023-04-23T09:03:07;49.93;;;10.10;;
1747;SDS011;871;47.034;15.394;2023-04-23T09:05:35;51.37;;;10.20;;
1747;SDS011;871;47.034;15.394;2023-04-23T09:08:01;46.00;;;9.00;;
1747;SDS011;871;47.034;15.394;2023-04-23T09:10:27;48.90;;;9.83;;
1747;SDS011;871;47.034;15.394;2023-04-23T09:12:53;46.27;;;9.33;;
1747;SDS011;871;47.034;15.394;2023-04-23T09:15:19;48.00;;;10.90;;
1747;SDS011;871;47.034;15.394;2023-04-23T09:17:46;46.17;;;9.67;;
1747;SDS011;871;47.034;15.394;2023-04-23T09:20:13;45.47;;;8.87;;
1747;SDS011;871;47.034;15.394;2023-04-23T09:22:49;47.53;;;8.80;;
1747;SDS011;871;47.034;15.394;2023-04-23T09:25:17;47.07;;;9.63;;
1747;SDS011;871;47.034;15.394;2023-04-23T09:27:44;47.93;;;10.37;;
1747;SDS011;871;47.034;15.394;2023-04-23T09:30:10;45.80;;;8.77;;
1747;SDS011;871;47.034;15.394;2023-04-23T09:32:37;50.80;;;8.97;;
1747;SDS011;871;47.034;15.394;2023-04-23T09:35:04;49.30;;;10.23;;
1747;SDS011;871;47.034;15.394;2023-04-23T09:37:32;46.70;;;9.87;;
1747;SDS011;871;47.034;15.394;2023-04-23T09:39:59;48.17;;;9.83;;
1747;SDS011;871;47.034;15.394;2023-04-23T09:42:25;47.93;;;9.73;;
1747;SDS011;871;47.034;15.394;2023-04-23T09:45:11;46.37;;;8.63;;
1747;SDS011;871;47.034;15.394;2023-04-23T09:47:38;49.23;;;10.40;;
1747;SDS011;871;47.034;15.394;2023-04-23T09:50:05;48.00;;;10.27;;
1747;SDS011;871;47.034;15.394;2023-04-23T09:52:32;46.23;;;9.73;;
1747;SDS011;871;47.034;15.394;2023-04-23T09:55:02;46.90;;;9.37;;
1747;SDS011;871;47.034;15.394;2023-04-23T09:57:34;46.70;;;9.50;;
1747;SDS011;871;47.034;15.394;2023-04-23T10:00:12;49.10;;;11.00;;
1747;SDS011;871;47.034;15.394;2023-04-23T10:02:44;48.57;;;10.40;;
1747;SDS011;871;47.034;15.394;2023-04-23T10:05:15;62.13;;;11.13;;
1747;SDS011;871;47.034;15.394;2023-04-23T10:07:42;48.90;;;10.47;;
1747;SDS011;871;47.034;15.394;2023-04-23T10:10:09;46.87;;;9.97;;
1747;SDS011;871;47.034;15.394;2023-04-23T10:12:36;48.17;;;9.37;;
1747;SDS011;871;47.034;15.394;2023-04-23T10:15:05;46.37;;;9.33;;
1747;SDS011;871;47.034;15.394;2023-04-23T10:17:33;47.70;;;9.60;;
1747;SDS011;871;47.034;15.394;2023-04-23T10:20:00;46.07;;;8.53;;
1747;SDS011;871;47.034;15.394;2023-04-23T10:22:29;45.80;;;7.70;;
1747;SDS011;871;47.034;15.394;2023-04-23T10:24:56;44.97;;;7.60;;
1747;SDS011;871;47.034;15.394;2023-04-23T10:27:26;47.50;;;8.80;;
1747;SDS011;871;47.034;15.394;2023-04-23T10:29:53;45.30;;;7.57;;
1747;SDS011;871;47.034;15.394;2023-04-23T10:32:20;47.70;;;7.90;;
1747;SDS011;871;47.034;15.394;2023-04-23T10:34:46;44.30;;;6.90;;
1747;SDS011;871;47.034;15.394;2023-04-23T10:37:12;44.67;;;7.20;;
1747;SDS011;871;47.034;15.394;2023-04-23T10:40:06;42.80;;;6.70;;
1747;SDS011;871;47.034;15.394;2023-04-23T10:42:35;43.47;;;6.73;;
1747;SDS011;871;47.034;15.394;2023-04-23T10:45:01;46.30;;;7.20;;
1747;SDS011;871;47.034;15.394;2023-04-23T10:47:32;46.20;;;7.90;;
1747;SDS011;871;47.034;15.394;2023-04-23T10:49:59;44.33;;;6.97;;
1747;SDS011;871;47.034;15.394;2023-04-23T10:52:42;46.07;;;8.80;;
1747;SDS011;871;47.034;15.394;2023-04-23T10:55:15;44.70;;;7.67;;
1747;SDS011;871;47.034;15.394;2023-04-23T11:00:26;44.00;;;7.27;;
1747;SDS011;871;47.034;15.394;2023-04-23T11:02:52;44.50;;;7.30;;
1747;SDS011;871;47.034;15.394;2023-04-23T11:05:18;45.67;;;7.73;;
1747;SDS011;871;47.034;15.394;2023-04-23T11:08:05;44.20;;;7.13;;
1747;SDS011;871;47.034;15.394;2023-04-23T11:10:33;44.87;;;7.90;;
1747;SDS011;871;47.034;15.394;2023-04-23T11:13:18;46.77;;;7.83;;
1747;SDS011;871;47.034;15.394;2023-04-23T11:15:45;44.97;;;6.67;;
1747;SDS011;871;47.034;15.394;2023-04-23T11:18:11;45.30;;;7.33;;
1747;SDS011;871;47.034;15.394;2023-04-23T11:20:37;43.97;;;6.70;;
1747;SDS011;871;47.034;15.394;2023-04-23T11:23:05;45.10;;;7.80;;
1747;SDS011;871;47.034;15.394;2023-04-23T11:25:31;43.90;;;7.40;;
1747;SDS011;871;47.034;15.394;2023-04-23T11:27:57;45.50;;;7.07;;
1747;SDS011;871;47.034;15.394;2023-04-23T11:30:24;44.10;;;6.53;;
1747;SDS011;871;47.034;15.394;2023-04-23T11:32:51;45.00;;;6.67;;
1747;SDS011;871;47.034;15.394;2023-04-23T11:35:19;45.67;;;6.77;;
1747;SDS011;871;47.034;15.394;2023-04-23T11:37:45;43.70;;;6.17;;
1747;SDS011;871;47.034;15.394;2023-04-23T11:40:13;43.00;;;6.13;;
1747;SDS011;871;47.034;15.394;2023-04-23T11:42:43;43.63;;;5.90;;
1747;SDS011;871;47.034;15.394;2023-04-23T11:45:14;45.03;;;7.13;;
1747;SDS011;871;47.034;15.394;2023-04-23T11:47:42;44.10;;;6.70;;
1747;SDS011;871;47.034;15.394;2023-04-23T11:50:08;42.83;;;6.10;;
1747;SDS011;871;47.034;15.394;2023-04-23T11:52:34;43.30;;;6.10;;
1747;SDS011;871;47.034;15.394;2023-04-23T11:55:07;46.80;;;6.30;;
1747;SDS011;871;47.034;15.394;2023-04-23T11:57:39;43.23;;;6.60;;
1747;SDS011;871;47.034;15.394;2023-04-23T12:00:15;45.90;;;7.10;;
1747;SDS011;871;47.034;15.394;2023-04-23T12:02:57;45.67;;;6.77;;
1747;SDS011;871;47.034;15.394;2023-04-23T12:07:53;46.90;;;6.70;;
1747;SDS011;871;47.034;15.394;2023-04-23T12:10:19;45.27;;;6.50;;
1747;SDS011;871;47.034;15.394;2023-04-23T12:12:49;42.27;;;6.13;;
1747;SDS011;871;47.034;15.394;2023-04-23T12:15:16;42.67;;;5.30;;
1747;SDS011;871;47.034;15.394;2023-04-23T12:17:48;42.20;;;4.93;;
1747;SDS011;871;47.034;15.394;2023-04-23T12:20:15;41.80;;;5.60;;
1747;SDS011;871;47.034;15.394;2023-04-23T12:22:41;43.20;;;6.67;;
1747;SDS011;871;47.034;15.394;2023-04-23T12:25:07;45.03;;;6.40;;
1747;SDS011;871;47.034;15.394;2023-04-23T12:27:37;42.10;;;5.93;;
1747;SDS011;871;47.034;15.394;2023-04-23T12:30:04;42.83;;;6.27;;
1747;SDS011;871;47.034;15.394;2023-04-23T12:32:32;43.27;;;6.53;;
1747;SDS011;871;47.034;15.394;2023-04-23T12:34:58;42.73;;;5.33;;
1747;SDS011;871;47.034;15.394;2023-04-23T12:37:28;43.07;;;6.00;;
1747;SDS011;871;47.034;15.394;2023-04-23T12:39:55;44.23;;;6.67;;
1747;SDS011;871;47.034;15.394;2023-04-23T12:42:23;44.33;;;5.73;;
1747;SDS011;871;47.034;15.394;2023-04-23T12:44:50;42.43;;;5.60;;
1747;SDS011;871;47.034;15.394;2023-04-23T12:47:16;44.20;;;7.13;;
1747;SDS011;871;47.034;15.394;2023-04-23T12:49:45;44.20;;;6.60;;
1747;SDS011;871;47.034;15.394;2023-04-23T12:52:13;44.50;;;7.43;;
1747;SDS011;871;47.034;15.394;2023-04-23T12:54:40;44.80;;;7.17;;
1747;SDS011;871;47.034;15.394;2023-04-23T12:57:11;42.90;;;6.77;;
1747;SDS011;871;47.034;15.394;2023-04-23T12:59:38;43.50;;;6.83;;
1747;SDS011;871;47.034;15.394;2023-04-23T13:02:04;43.70;;;6.23;;
1747;SDS011;871;47.034;15.394;2023-04-23T13:04:31;44.30;;;6.50;;
1747;SDS011;871;47.034;15.394;2023-04-23T13:06:57;43.07;;;5.93;;
1747;SDS011;871;47.034;15.394;2023-04-23T13:09:24;43.37;;;6.10;;
1747;SDS011;871;47.034;15.394;2023-04-23T13:11:51;42.93;;;6.10;;
1747;SDS011;871;47.034;15.394;2023-04-23T13:14:18;43.10;;;6.33;;
1747;SDS011;871;47.034;15.394;2023-04-23T13:16:45;47.17;;;7.13;;
1747;SDS011;871;47.034;15.394;2023-04-23T13:19:11;48.40;;;6.20;;
1747;SDS011;871;47.034;15.394;2023-04-23T13:21:37;44.53;;;5.80;;
1747;SDS011;871;47.034;15.394;2023-04-23T13:24:03;42.20;;;5.60;;
1747;SDS011;871;47.034;15.394;2023-04-23T13:26:29;43.87;;;5.43;;
1747;SDS011;871;47.034;15.394;2023-04-23T13:28:59;42.33;;;5.90;;
1747;SDS011;871;47.034;15.394;2023-04-23T13:31:26;43.57;;;6.40;;
1747;SDS011;871;47.034;15.394;2023-04-23T13:33:52;43.87;;;6.20;;
1747;SDS011;871;47.034;15.394;2023-04-23T13:36:18;44.73;;;6.47;;
1747;SDS011;871;47.034;15.394;2023-04-23T13:38:45;44.10;;;7.00;;
1747;SDS011;871;47.034;15.394;2023-04-23T13:41:11;42.80;;;6.20;;
1747;SDS011;871;47.034;15.394;2023-04-23T13:43:37;44.10;;;6.60;;
1747;SDS011;871;47.034;15.394;2023-04-23T13:46:04;42.70;;;5.73;;
1747;SDS011;871;47.034;15.394;2023-04-23T13:48:30;45.93;;;7.73;;
1747;SDS011;871;47.034;15.394;2023-04-23T13:50:57;43.60;;;6.80;;
1747;SDS011;871;47.034;15.394;2023-04-23T13:53:23;45.13;;;6.80;;
1747;SDS011;871;47.034;15.394;2023-04-23T13:55:49;44.00;;;6.60;;
1747;SDS011;871;47.034;15.394;2023-04-23T13:58:15;44.90;;;6.27;;
1747;SDS011;871;47.034;15.394;2023-04-23T14:00:42;44.07;;;6.50;;
1747;SDS011;871;47.034;15.394;2023-04-23T14:03:09;44.37;;;7.80;;
1747;SDS011;871;47.034;15.394;2023-04-23T14:05:35;45.70;;;6.70;;
1747;SDS011;871;47.034;15.394;2023-04-23T14:08:02;43.57;;;6.97;;
1747;SDS011;871;47.034;15.394;2023-04-23T14:10:28;43.17;;;5.93;;
1747;SDS011;871;47.034;15.394;2023-04-23T14:12:54;45.10;;;7.03;;
1747;SDS011;871;47.034;15.394;2023-04-23T14:15:20;44.50;;;6.37;;
1747;SDS011;871;47.034;15.394;2023-04-23T14:17:47;43.60;;;6.70;;
1747;SDS011;871;47.034;15.394;2023-04-23T14:20:13;44.07;;;7.00;;
1747;SDS011;871;47.034;15.394;2023-04-23T14:22:40;43.57;;;6.87;;
1747;SDS011;871;47.034;15.394;2023-04-23T14:25:09;43.57;;;6.70;;
1747;SDS011;871;47.034;15.394;2023-04-23T14:27:40;45.43;;;7.00;;
1747;SDS011;871;47.034;15.394;2023-04-23T14:30:16;44.37;;;6.70;;
1747;SDS011;871;47.034;15.394;2023-04-23T14:32:44;43.83;;;7.20;;
1747;SDS011;871;47.034;15.394;2023-04-23T14:35:12;44.80;;;7.70;;
1747;SDS011;871;47.034;15.394;2023-04-23T14:37:38;44.03;;;6.23;;
1747;SDS011;871;47.034;15.394;2023-04-23T14:40:08;45.70;;;7.70;;
1747;SDS011;871;47.034;15.394;2023-04-23T14:42:34;45.43;;;8.27;;
1747;SDS011;871;47.034;15.394;2023-04-23T14:45:00;46.20;;;7.37;;
1747;SDS011;871;47.034;15.394;2023-04-23T14:47:27;44.10;;;6.60;;
1747;SDS011;871;47.034;15.394;2023-04-23T14:49:53;44.77;;;7.07;;
1747;SDS011;871;47.034;15.394;2023-04-23T14:52:21;43.93;;;6.67;;
1747;SDS011;871;47.034;15.394;2023-04-23T14:54:47;43.70;;;7.13;;
1747;SDS011;871;47.034;15.394;2023-04-23T14:57:13;43.90;;;7.47;;
1747;SDS011;871;47.034;15.394;2023-04-23T14:59:39;42.73;;;5.73;;
1747;SDS011;871;47.034;15.394;2023-04-23T15:02:05;45.00;;;6.50;;
1747;SDS011;871;47.034;15.394;2023-04-23T15:04:31;44.73;;;6.90;;
1747;SDS011;871;47.034;15.394;2023-04-23T15:06:57;44.07;;;6.97;;
1747;SDS011;871;47.034;15.394;2023-04-23T15:09:24;45.73;;;8.10;;
1747;SDS011;871;47.034;15.394;2023-04-23T15:11:50;44.40;;;7.10;;
1747;SDS011;871;47.034;15.394;2023-04-23T15:14:23;44.57;;;7.63;;
1747;SDS011;871;47.034;15.394;2023-04-23T15:16:49;44.70;;;7.97;;
1747;SDS011;871;47.034;15.394;2023-04-23T15:19:16;45.53;;;9.27;;
1747;SDS011;871;47.034;15.394;2023-04-23T15:21:43;45.47;;;9.53;;
1747;SDS011;871;47.034;15.394;2023-04-23T15:24:09;49.70;;;8.33;;
1747;SDS011;871;47.034;15.394;2023-04-23T15:26:35;45.83;;;7.17;;
1747;SDS011;871;47.034;15.394;2023-04-23T15:29:01;45.20;;;8.50;;
1747;SDS011;871;47.034;15.394;2023-04-23T15:31:28;43.80;;;7.00;;
1747;SDS011;871;47.034;15.394;2023-04-23T15:33:53;46.10;;;7.20;;
1747;SDS011;871;47.034;15.394;2023-04-23T15:36:20;45.50;;;7.37;;
1747;SDS011;871;47.034;15.394;2023-04-23T15:38:46;45.57;;;7.53;;
1747;SDS011;871;47.034;15.394;2023-04-23T15:41:12;43.37;;;6.60;;
1747;SDS011;871;47.034;15.394;2023-04-23T15:43:38;44.20;;;7.00;;
1747;SDS011;871;47.034;15.394;2023-04-23T15:46:04;44.57;;;7.50;;
1747;SDS011;871;47.034;15.394;2023-04-23T15:48:30;44.17;;;6.43;;
1747;SDS011;871;47.034;15.394;2023-04-23T15:50:56;45.27;;;6.63;;
1747;SDS011;871;47.034;15.394;2023-04-23T15:53:22;43.27;;;6.53;;
1747;SDS011;871;47.034;15.394;2023-04-23T15:55:49;43.60;;;6.87;;
1747;SDS011;871;47.034;15.394;2023-04-23T15:58:15;44.63;;;6.83;;
1747;SDS011;871;47.034;15.394;2023-04-23T16:00:42;45.37;;;6.93;;
1747;SDS011;871;47.034;15.394;2023-04-23T16:03:08;47.10;;;7.87;;
1747;SDS011;871;47.034;15.394;2023-04-23T16:05:34;44.07;;;6.70;;
1747;SDS011;871;47.034;15.394;2023-04-23T16:08:01;43.17;;;6.97;;
1747;SDS011;871;47.034;15.394;2023-04-23T16:10:27;44.50;;;6.90;;
1747;SDS011;871;47.034;15.394;2023-04-23T16:12:55;44.17;;;7.13;;
1747;SDS011;871;47.034;15.394;2023-04-23T16:15:23;43.40;;;6.57;;
1747;SDS011;871;47.034;15.394;2023-04-23T16:17:49;43.97;;;6.57;;
1747;SDS011;871;47.034;15.394;2023-04-23T16:20:18;44.43;;;8.03;;
1747;SDS011;871;47.034;15.394;2023-04-23T16:22:44;45.10;;;7.13;;
1747;SDS011;871;47.034;15.394;2023-04-23T16:25:10;44.20;;;7.63;;
1747;SDS011;871;47.034;15.394;2023-04-23T16:27:36;45.10;;;7.23;;
1747;SDS011;871;47.034;15.394;2023-04-23T16:30:03;44.20;;;7.10;;
1747;SDS011;871;47.034;15.394;2023-04-23T16:32:29;43.37;;;7.20;;
1747;SDS011;871;47.034;15.394;2023-04-23T16:34:55;44.07;;;7.30;;
1747;SDS011;871;47.034;15.394;2023-04-23T16:37:22;48.90;;;6.70;;
1747;SDS011;871;47.034;15.394;2023-04-23T16:39:48;44.97;;;7.97;;
1747;SDS011;871;47.034;15.394;2023-04-23T16:42:14;45.50;;;6.83;;
1747;SDS011;871;47.034;15.394;2023-04-23T16:44:40;44.03;;;7.20;;
1747;SDS011;871;47.034;15.394;2023-04-23T16:47:06;44.27;;;7.20;;
1747;SDS011;871;47.034;15.394;2023-04-23T16:49:32;44.40;;;7.77;;
1747;SDS011;871;47.034;15.394;2023-04-23T16:51:58;43.93;;;6.40;;
1747;SDS011;871;47.034;15.394;2023-04-23T16:54:26;47.50;;;6.60;;
1747;SDS011;871;47.034;15.394;2023-04-23T16:56:52;43.60;;;5.40;;
1747;SDS011;871;47.034;15.394;2023-04-23T16:59:18;40.10;;;4.30;;
1747;SDS011;871;47.034;15.394;2023-04-23T17:01:44;43.40;;;4.97;;
1747;SDS011;871;47.034;15.394;2023-04-23T17:04:10;42.30;;;4.60;;
1747;SDS011;871;47.034;15.394;2023-04-23T17:06:36;42.77;;;6.17;;
1747;SDS011;871;47.034;15.394;2023-04-23T17:09:02;40.87;;;4.63;;
1747;SDS011;871;47.034;15.394;2023-04-23T17:11:32;42.10;;;4.80;;
1747;SDS011;871;47.034;15.394;2023-04-23T17:13:59;41.63;;;5.47;;
1747;SDS011;871;47.034;15.394;2023-04-23T17:16:25;42.07;;;4.70;;
1747;SDS011;871;47.034;15.394;2023-04-23T17:18:54;43.30;;;4.00;;
1747;SDS011;871;47.034;15.394;2023-04-23T17:21:21;42.10;;;5.07;;
1747;SDS011;871;47.034;15.394;2023-04-23T17:23:47;39.43;;;3.20;;
1747;SDS011;871;47.034;15.394;2023-04-23T17:26:13;40.40;;;2.97;;
1747;SDS011;871;47.034;15.394;2023-04-23T17:28:40;40.73;;;3.97;;
1747;SDS011;871;47.034;15.394;2023-04-23T17:31:06;41.70;;;4.10;;
1747;SDS011;871;47.034;15.394;2023-04-23T17:33:32;43.60;;;3.90;;
1747;SDS011;871;47.034;15.394;2023-04-23T17:35:59;41.50;;;4.70;;
1747;SDS011;871;47.034;15.394;2023-04-23T17:38:25;41.10;;;4.30;;
1747;SDS011;871;47.034;15.394;2023-04-23T17:40:52;39.87;;;3.90;;
1747;SDS011;871;47.034;15.394;2023-04-23T17:43:19;41.40;;;4.43;;
1747;SDS011;871;47.034;15.394;2023-04-23T17:45:45;40.70;;;4.30;;
1747;SDS011;871;47.034;15.394;2023-04-23T17:48:12;39.47;;;4.40;;
1747;SDS011;871;47.034;15.394;2023-04-23T17:50:40;41.77;;;5.20;;
1747;SDS011;871;47.034;15.394;2023-04-23T17:53:07;40.70;;;4.73;;
1747;SDS011;871;47.034;15.394;2023-04-23T17:55:33;40.33;;;4.93;;
1747;SDS011;871;47.034;15.394;2023-04-23T17:58:00;44.13;;;5.37;;
1747;SDS011;871;47.034;15.394;2023-04-23T18:00:36;43.20;;;5.50;;
1747;SDS011;871;47.034;15.394;2023-04-23T18:03:03;41.57;;;4.00;;
1747;SDS011;871;47.034;15.394;2023-04-23T18:05:31;41.17;;;4.23;;
1747;SDS011;871;47.034;15.394;2023-04-23T18:07:57;39.90;;;4.17;;
1747;SDS011;871;47.034;15.394;2023-04-23T18:10:23;40.60;;;4.00;;
1747;SDS011;871;47.034;15.394;2023-04-23T18:12:49;40.17;;;3.90;;
1747;SDS011;871;47.034;15.394;2023-04-23T18:15:15;40.40;;;4.00;;
1747;SDS011;871;47.034;15.394;2023-04-23T18:17:42;40.63;;;3.90;;
1747;SDS011;871;47.034;15.394;2023-04-23T18:20:09;39.97;;;4.23;;
1747;SDS011;871;47.034;15.394;2023-04-23T18:22:35;43.03;;;4.00;;
1747;SDS011;871;47.034;15.394;2023-04-23T18:25:02;39.60;;;4.30;;
1747;SDS011;871;47.034;15.394;2023-04-23T18:27:28;40.83;;;4.93;;
1747;SDS011;871;47.034;15.394;2023-04-23T18:29:55;42.53;;;4.43;;
1747;SDS011;871;47.034;15.394;2023-04-23T18:32:23;40.60;;;4.50;;
1747;SDS011;871;47.034;15.394;2023-04-23T18:34:49;40.43;;;4.40;;
1747;SDS011;871;47.034;15.394;2023-04-23T18:37:51;39.53;;;3.67;;
1747;SDS011;871;47.034;15.394;2023-04-23T18:40:08;41.70;;;4.00;;
1747;SDS011;871;47.034;15.394;2023-04-23T18:42:37;40.20;;;4.57;;
1747;SDS011;871;47.034;15.394;2023-04-23T18:45:04;39.97;;;3.90;;
1747;SDS011;871;47.034;15.394;2023-04-23T18:47:31;40.20;;;3.97;;
1747;SDS011;871;47.034;15.394;2023-04-23T18:50:00;39.17;;;3.33;;
1747;SDS011;871;47.034;15.394;2023-04-23T18:52:29;40.87;;;4.20;;
1747;SDS011;871;47.034;15.394;2023-04-23T18:54:56;39.87;;;4.00;;
1747;SDS011;871;47.034;15.394;2023-04-23T18:57:22;46.43;;;5.60;;
1747;SDS011;871;47.034;15.394;2023-04-23T18:59:49;40.10;;;4.20;;
1747;SDS011;871;47.034;15.394;2023-04-23T19:02:15;39.40;;;4.30;;
1747;SDS011;871;47.034;15.394;2023-04-23T19:04:41;38.80;;;3.00;;